Hambleton, United Kingdom
Current Conditions -  °F | °C
As of 2:50 AM on Saturday 25 Oct 2014 (Local Time) from EGXU Reporting Station
Clear Clear  
Wind Chill: 44°   Ceiling: Unl
Heat Index: 48°   Visibility: 6mi
Dew Point: 45°   Wind: 9mph
Humidity: 87%   Direction: 240°WSW
Pressure: 29.88"   Gusts: NA
Location:  53.77°N, 1.17°W
Report Text: EGXU 250150Z AUTO 24008KT 9999 // NCD 09/07 Q1012
Loading
Personal Weather Stations






























Interactive Weather Map
Tropical Storm Tracking
New forecast layout! Learn more

10-Day Weather Forecast

Advertisements
Track Severe Weather on mobile